Time;durP1;ratioP1;P1;durP2;ratioP2;P2;SDS_P1;SDS_P2;PMS_P1;PMS_P2;Temp;Humidity;BMP_temperature;BMP_pressure;BME280_temperature;BME280_humidity;BME280_pressure;Samples;Min_cycle;Max_cycle;Signal;HPM_P1;HPM_P2
2022/10/06 00:01:47;;;;;;;;;0.75;0.25;;;;;;;;5018020;28;45412;-68
2022/10/06 00:04:13;;;;;;;;;2.00;0.75;;;;;;;;5017349;28;45501;-68
2022/10/06 00:06:38;;;;;;;;;0.00;0.00;;;;;;;;5017671;28;45384;-68
2022/10/06 00:09:03;;;;;;;;;2.75;0.00;;;;;;;;5017404;28;45510;-68
2022/10/06 00:11:28;;;;;;;;;1.25;0.25;;;;;;;;5017698;28;45299;-68
2022/10/06 00:13:54;;;;;;;;;0.00;0.00;;;;;;;;5017477;28;46378;-68
2022/10/06 00:16:23;;;;;;;;;1.25;0.75;;;;;;;;5017478;28;45352;-68
2022/10/06 00:18:48;;;;;;;;;1.50;0.00;;;;;;;;5017502;28;45282;-69
2022/10/06 00:21:13;;;;;;;;;1.00;1.00;;;;;;;;5017611;28;45624;-69
2022/10/06 00:23:39;;;;;;;;;2.00;0.25;;;;;;;;5017056;28;46401;-67
2022/10/06 00:26:05;;;;;;;;;2.00;0.00;;;;;;;;5017279;28;45207;-68
2022/10/06 00:28:30;;;;;;;;;3.25;1.00;;;;;;;;5017287;28;45363;-68
2022/10/06 00:30:55;;;;;;;;;2.50;1.00;;;;;;;;5018904;28;45305;-67
2022/10/06 00:33:21;;;;;;;;;2.25;0.25;;;;;;;;5020711;28;46363;-68
2022/10/06 00:35:47;;;;;;;;;1.25;0.00;;;;;;;;5020652;28;45492;-68
2022/10/06 00:38:13;;;;;;;;;2.25;1.00;;;;;;;;5020886;28;45230;-68
2022/10/06 00:40:43;;;;;;;;;2.25;0.25;;;;;;;;5020893;28;45423;-68
2022/10/06 00:43:27;;;;;;;;;1.25;0.00;;;;;;;;5020400;28;46542;-68
2022/10/06 00:45:52;;;;;;;;;3.00;0.00;;;;;;;;5020602;28;45472;-67
2022/10/06 00:48:20;;;;;;;;;0.25;0.25;;;;;;;;5020731;28;45270;-68
2022/10/06 00:50:46;;;;;;;;;1.00;1.00;;;;;;;;5020828;28;45310;-67
2022/10/06 00:53:12;;;;;;;;;5.00;1.00;;;;;;;;5020525;28;47101;-67
2022/10/06 00:55:37;;;;;;;;;2.25;0.00;;;;;;;;5020381;28;45381;-67
2022/10/06 00:58:03;;;;;;;;;1.25;0.00;;;;;;;;5020438;28;45720;-69
2022/10/06 01:00:28;;;;;;;;;2.00;1.00;;;;;;;;5020638;28;45410;-68
2022/10/06 01:02:56;;;;;;;;;1.75;0.00;;;;;;;;5020264;28;46505;-68
2022/10/06 01:05:27;;;;;;;;;0.00;0.00;;;;;;;;5020466;28;45213;-67
2022/10/06 01:07:53;;;;;;;;;2.50;0.75;;;;;;;;5020261;28;45351;-68
2022/10/06 01:10:18;;;;;;;;;2.00;0.75;;;;;;;;5020258;28;45346;-68
2022/10/06 01:12:43;;;;;;;;;1.00;0.00;;;;;;;;5018948;28;46256;-68
2022/10/06 01:15:09;;;;;;;;;1.00;1.00;;;;;;;;5020159;28;45312;-68
2022/10/06 01:17:43;;;;;;;;;2.00;0.00;;;;;;;;5020343;28;45389;-68
2022/10/06 01:20:13;;;;;;;;;4.00;1.00;;;;;;;;5020501;28;45404;-68
2022/10/06 01:22:42;;;;;;;;;3.25;1.00;;;;;;;;5019859;28;46210;-68
2022/10/06 01:25:08;;;;;;;;;3.50;0.00;;;;;;;;5019789;28;45318;-68
2022/10/06 01:27:35;;;;;;;;;2.00;1.00;;;;;;;;5020045;28;45293;-68
2022/10/06 01:30:00;;;;;;;;;5.75;0.25;;;;;;;;5019993;28;45345;-68
2022/10/06 01:32:30;;;;;;;;;1.50;1.00;;;;;;;;5019962;28;46243;-68
2022/10/06 01:34:55;;;;;;;;;2.00;0.75;;;;;;;;5019850;28;45845;-68
2022/10/06 01:37:20;;;;;;;;;3.00;1.75;;;;;;;;5019908;28;45300;-68
2022/10/06 01:39:46;;;;;;;;;2.50;1.00;;;;;;;;5019863;28;45467;-69
2022/10/06 01:42:11;;;;;;;;;2.25;1.00;;;;;;;;5018773;28;46321;-67
2022/10/06 01:44:36;;;;;;;;;2.75;0.75;;;;;;;;5019635;28;45368;-68
2022/10/06 01:47:05;;;;;;;;;1.75;1.00;;;;;;;;5019784;28;45327;-68
2022/10/06 01:49:30;;;;;;;;;4.00;1.00;;;;;;;;5019821;28;45231;-68
2022/10/06 01:51:56;;;;;;;;;3.25;1.00;;;;;;;;5019614;28;46176;-68
2022/10/06 01:54:21;;;;;;;;;3.00;1.00;;;;;;;;5019500;28;45217;-67
2022/10/06 01:56:46;;;;;;;;;2.00;0.00;;;;;;;;5019691;28;45381;-68
2022/10/06 01:59:12;;;;;;;;;2.00;0.75;;;;;;;;5019722;28;45493;-69
2022/10/06 02:01:37;;;;;;;;;0.25;0.25;;;;;;;;5019389;28;46752;-69
2022/10/06 02:04:02;;;;;;;;;2.00;1.00;;;;;;;;5019375;28;45286;-68
2022/10/06 02:06:28;;;;;;;;;2.00;1.75;;;;;;;;5019590;28;45469;-68
2022/10/06 02:08:53;;;;;;;;;5.25;1.00;;;;;;;;5019557;28;45474;-69
2022/10/06 02:11:18;;;;;;;;;5.00;1.00;;;;;;;;5019046;28;45583;-68
2022/10/06 02:13:44;;;;;;;;;0.00;0.00;;;;;;;;5017900;28;45247;-69
2022/10/06 02:16:10;;;;;;;;;2.00;2.00;;;;;;;;5019424;28;45433;-68
2022/10/06 02:18:35;;;;;;;;;5.00;1.00;;;;;;;;5019464;28;45373;-68
2022/10/06 02:21:01;;;;;;;;;2.75;0.50;;;;;;;;5019128;28;47086;-68
2022/10/06 02:23:26;;;;;;;;;3.25;1.00;;;;;;;;5018969;28;45278;-67
2022/10/06 02:25:59;;;;;;;;;1.50;1.00;;;;;;;;5018387;28;45362;-65
2022/10/06 02:28:25;;;;;;;;;1.00;1.00;;;;;;;;5019265;28;45471;-68
2022/10/06 02:30:50;;;;;;;;;1.00;0.25;;;;;;;;5018778;28;45592;-70
2022/10/06 02:33:15;;;;;;;;;2.25;0.50;;;;;;;;5019069;28;45356;-69
2022/10/06 02:35:41;;;;;;;;;3.25;1.75;;;;;;;;5018973;28;45362;-69
2022/10/06 02:38:07;;;;;;;;;2.00;0.50;;;;;;;;5019028;28;45524;-69
2022/10/06 02:40:32;;;;;;;;;6.25;1.00;;;;;;;;5018645;28;46250;-68
2022/10/06 02:42:57;;;;;;;;;13.67;10.67;;;;;;;;5018716;28;45258;-65
2022/10/06 02:45:22;;;;;;;;;3.50;1.50;;;;;;;;5018917;28;45785;-69
2022/10/06 02:47:48;;;;;;;;;3.00;0.75;;;;;;;;5018592;28;45536;-70
2022/10/06 02:50:14;;;;;;;;;1.00;1.00;;;;;;;;5018637;28;46985;-67
2022/10/06 02:52:41;;;;;;;;;2.00;2.00;;;;;;;;5018495;28;45168;-68
2022/10/06 02:55:07;;;;;;;;;2.00;1.00;;;;;;;;5017157;28;45479;-66
2022/10/06 02:57:32;;;;;;;;;4.00;1.00;;;;;;;;5018760;28;45356;-66
2022/10/06 02:59:57;;;;;;;;;5.50;0.75;;;;;;;;5018396;28;47320;-66
2022/10/06 03:02:23;;;;;;;;;2.50;1.00;;;;;;;;5018441;28;45167;-67
2022/10/06 03:04:48;;;;;;;;;3.00;1.00;;;;;;;;5018462;28;45181;-67
2022/10/06 03:07:13;;;;;;;;;2.00;1.00;;;;;;;;5018809;28;45333;-67
2022/10/06 03:09:39;;;;;;;;;2.50;1.00;;;;;;;;5017928;28;46237;-67
2022/10/06 03:12:04;;;;;;;;;8.25;6.00;;;;;;;;5018115;28;45364;-67
2022/10/06 03:14:29;;;;;;;;;3.50;1.00;;;;;;;;5018445;28;45148;-69
2022/10/06 03:16:55;;;;;;;;;1.00;1.00;;;;;;;;5018783;28;45466;-67
2022/10/06 03:19:20;;;;;;;;;4.00;0.50;;;;;;;;5018015;28;45464;-68
2022/10/06 03:21:46;;;;;;;;;2.00;0.00;;;;;;;;5018289;28;45321;-68
2022/10/06 03:24:11;;;;;;;;;2.00;2.00;;;;;;;;5018083;28;45305;-68
2022/10/06 03:26:39;;;;;;;;;3.50;1.00;;;;;;;;5018035;28;45552;-67
2022/10/06 03:29:04;;;;;;;;;8.25;1.50;;;;;;;;5017874;28;45590;-68
2022/10/06 03:31:30;;;;;;;;;1.75;1.00;;;;;;;;5022472;28;45447;-68
2022/10/06 03:33:55;;;;;;;;;2.00;2.00;;;;;;;;5024257;28;45345;-69
2022/10/06 03:36:21;;;;;;;;;2.00;1.00;;;;;;;;5022333;28;45409;-68
2022/10/06 03:38:47;;;;;;;;;2.00;1.00;;;;;;;;5020331;28;46547;-67
2022/10/06 03:41:12;;;;;;;;;1.50;1.00;;;;;;;;5037627;28;45215;-68
2022/10/06 03:43:38;;;;;;;;;1.00;1.00;;;;;;;;5037545;28;45203;-66
2022/10/06 03:46:04;;;;;;;;;2.25;1.00;;;;;;;;5037872;28;45378;-67
2022/10/06 03:48:30;;;;;;;;;2.50;1.00;;;;;;;;5037356;28;45447;-68
2022/10/06 03:50:55;;;;;;;;;0.00;0.00;;;;;;;;5037656;28;45270;-67
2022/10/06 03:53:24;;;;;;;;;6.50;1.00;;;;;;;;5037850;28;45348;-67
2022/10/06 03:55:49;;;;;;;;;5.25;0.25;;;;;;;;5037733;28;45454;-67
2022/10/06 03:58:18;;;;;;;;;5.00;0.75;;;;;;;;5037564;28;45412;-67
2022/10/06 04:00:45;;;;;;;;;2.00;1.00;;;;;;;;5037460;28;45273;-67
2022/10/06 04:03:10;;;;;;;;;3.50;2.00;;;;;;;;5037501;28;45474;-68
2022/10/06 04:05:35;;;;;;;;;4.75;1.00;;;;;;;;5037473;28;45374;-68
2022/10/06 04:08:00;;;;;;;;;6.50;2.00;;;;;;;;5037289;28;46661;-68
2022/10/06 04:10:26;;;;;;;;;1.50;1.00;;;;;;;;5037414;28;45391;-67
2022/10/06 04:12:51;;;;;;;;;5.50;2.00;;;;;;;;5037324;28;45269;-67
2022/10/06 04:15:16;;;;;;;;;3.25;1.50;;;;;;;;5037501;28;45312;-66
2022/10/06 04:17:42;;;;;;;;;1.00;1.00;;;;;;;;5037445;28;45449;-66
2022/10/06 04:20:07;;;;;;;;;0.50;0.50;;;;;;;;5037338;28;45543;-67
2022/10/06 04:22:32;;;;;;;;;3.25;2.00;;;;;;;;5037505;28;45388;-66
2022/10/06 04:24:57;;;;;;;;;1.00;1.00;;;;;;;;5037462;28;45404;-67
2022/10/06 04:27:28;;;;;;;;;5.25;1.25;;;;;;;;5036691;28;46204;-66
2022/10/06 04:29:55;;;;;;;;;3.00;1.75;;;;;;;;5037069;28;45255;-67
2022/10/06 04:32:20;;;;;;;;;4.00;1.00;;;;;;;;5037171;28;45263;-68
2022/10/06 04:34:45;;;;;;;;;4.50;1.00;;;;;;;;5037293;28;45337;-68
2022/10/06 04:37:10;;;;;;;;;3.75;2.75;;;;;;;;5037112;28;47165;-71
2022/10/06 04:39:36;;;;;;;;;1.50;1.50;;;;;;;;5036837;28;45392;-71
2022/10/06 04:42:02;;;;;;;;;4.00;1.00;;;;;;;;5036899;28;45437;-71
2022/10/06 04:44:27;;;;;;;;;1.75;1.00;;;;;;;;5037292;28;45729;-71
2022/10/06 04:46:52;;;;;;;;;3.00;1.00;;;;;;;;5036705;28;46250;-73
2022/10/06 04:49:18;;;;;;;;;2.25;1.75;;;;;;;;5036879;28;45296;-72
2022/10/06 04:51:43;;;;;;;;;2.00;0.25;;;;;;;;5037131;28;45380;-72
2022/10/06 04:54:09;;;;;;;;;2.50;1.25;;;;;;;;5037308;28;45465;-73
2022/10/06 04:56:35;;;;;;;;;3.75;1.75;;;;;;;;5036594;28;46357;-72
2022/10/06 04:59:00;;;;;;;;;4.00;1.50;;;;;;;;5036613;28;45267;-76
2022/10/06 05:01:26;;;;;;;;;4.00;1.00;;;;;;;;5036910;28;45350;-74
2022/10/06 05:03:53;;;;;;;;;9.00;6.00;;;;;;;;5036789;28;45303;-73
2022/10/06 05:06:20;;;;;;;;;4.75;2.00;;;;;;;;5036688;28;46244;-68
2022/10/06 05:08:49;;;;;;;;;3.00;2.25;;;;;;;;5036435;28;45300;-67
2022/10/06 05:11:15;;;;;;;;;6.50;3.00;;;;;;;;5036551;28;45309;-69
2022/10/06 05:13:40;;;;;;;;;2.50;0.00;;;;;;;;5036960;28;45797;-70
2022/10/06 05:16:07;;;;;;;;;2.50;1.25;;;;;;;;5036465;28;46505;-69
2022/10/06 05:18:33;;;;;;;;;17.67;17.00;;;;;;;;5038711;28;45392;-69
2022/10/06 05:20:59;;;;;;;;;9.50;5.00;;;;;;;;5040164;28;45323;-70
2022/10/06 05:23:26;;;;;;;;;2.75;2.00;;;;;;;;5040113;28;45223;-70
2022/10/06 05:25:52;;;;;;;;;62.00;51.25;;;;;;;;5039511;28;45459;-68
2022/10/06 05:28:17;;;;;;;;;12.33;8.33;;;;;;;;5039322;28;45416;-69
2022/10/06 05:30:43;;;;;;;;;8.33;3.33;;;;;;;;5039886;28;45377;-69
2022/10/06 05:33:10;;;;;;;;;5.00;3.00;;;;;;;;5040139;28;45297;-69
2022/10/06 05:35:35;;;;;;;;;3.75;3.00;;;;;;;;5039690;28;45453;-70
2022/10/06 05:38:00;;;;;;;;;5.00;2.00;;;;;;;;5039780;28;45314;-70
2022/10/06 05:40:25;;;;;;;;;11.33;9.33;;;;;;;;5039506;28;45349;-70
2022/10/06 05:42:53;;;;;;;;;10.33;8.33;;;;;;;;5039684;28;45314;-69
2022/10/06 05:45:18;;;;;;;;;9.50;6.75;;;;;;;;5039720;28;45519;-69
2022/10/06 05:47:44;;;;;;;;;3.25;3.25;;;;;;;;5039546;28;45775;-72
2022/10/06 05:50:09;;;;;;;;;6.25;4.75;;;;;;;;5039728;28;45458;-71
2022/10/06 05:52:34;;;;;;;;;8.67;5.00;;;;;;;;5039813;28;45431;-74
2022/10/06 05:54:59;;;;;;;;;4.75;2.00;;;;;;;;5039269;28;45500;-72
2022/10/06 05:57:26;;;;;;;;;5.00;2.00;;;;;;;;5039174;28;45447;-72
2022/10/06 05:59:51;;;;;;;;;7.75;2.75;;;;;;;;5039395;28;45531;-72
2022/10/06 06:02:16;;;;;;;;;4.00;4.00;;;;;;;;5039588;28;45304;-72
2022/10/06 06:04:42;;;;;;;;;10.00;8.67;;;;;;;;5039003;28;46374;-71
2022/10/06 06:07:08;;;;;;;;;5.50;3.00;;;;;;;;5039101;28;45305;-70
2022/10/06 06:09:33;;;;;;;;;5.00;3.00;;;;;;;;5039230;28;45414;-72
2022/10/06 06:11:58;;;;;;;;;3.00;3.00;;;;;;;;5039117;28;45299;-73
2022/10/06 06:15:59;;;;;;;;;1.00;1.00;;;;;;;;5039109;28;45441;-73
2022/10/06 06:17:10;;;;;;;;;6.00;5.00;;;;;;;;5039040;28;45298;-72
2022/10/06 06:19:35;;;;;;;;;4.75;4.00;;;;;;;;5038963;28;45387;-72
2022/10/06 06:22:00;;;;;;;;;4.50;3.00;;;;;;;;5039071;28;45490;-68
2022/10/06 06:24:26;;;;;;;;;10.33;7.33;;;;;;;;5038735;28;45603;-65
2022/10/06 06:26:51;;;;;;;;;5.25;4.25;;;;;;;;5038518;28;45646;-76
2022/10/06 06:29:16;;;;;;;;;4.75;3.25;;;;;;;;5038527;28;45244;-70
2022/10/06 06:31:42;;;;;;;;;6.00;3.50;;;;;;;;5039057;28;45450;-71
2022/10/06 06:34:08;;;;;;;;;4.75;3.00;;;;;;;;5038595;28;46570;-71
2022/10/06 06:36:34;;;;;;;;;5.00;3.00;;;;;;;;5038490;28;45378;-70
2022/10/06 06:39:00;;;;;;;;;7.00;4.25;;;;;;;;5038897;28;45309;-70
2022/10/06 06:41:27;;;;;;;;;15.00;12.00;;;;;;;;5038859;28;45404;-70
2022/10/06 06:43:52;;;;;;;;;3.00;3.00;;;;;;;;5038495;28;46571;-70
2022/10/06 06:46:19;;;;;;;;;8.25;3.00;;;;;;;;5038780;28;45435;-71
2022/10/06 06:48:46;;;;;;;;;3.25;2.25;;;;;;;;5038549;28;45348;-70
2022/10/06 06:51:12;;;;;;;;;11.50;8.50;;;;;;;;5038818;28;45448;-70
2022/10/06 06:53:37;;;;;;;;;6.75;3.25;;;;;;;;5038226;28;47286;-70
2022/10/06 06:56:03;;;;;;;;;10.00;4.25;;;;;;;;5038102;28;46818;-71
2022/10/06 06:58:29;;;;;;;;;24.67;17.33;;;;;;;;5019574;28;45370;-71
2022/10/06 07:01:02;;;;;;;;;8.00;5.25;;;;;;;;5011194;28;45517;-70
2022/10/06 07:03:28;;;;;;;;;3.25;2.00;;;;;;;;5016349;28;45658;-71
2022/10/06 07:06:08;;;;;;;;;9.75;6.00;;;;;;;;5016018;28;45352;-70
2022/10/06 07:08:34;;;;;;;;;4.00;3.00;;;;;;;;4997082;28;45508;-70
2022/10/06 07:11:08;;;;;;;;;5.00;2.00;;;;;;;;4996832;28;45734;-71
2022/10/06 07:13:34;;;;;;;;;3.00;3.00;;;;;;;;4996815;28;45384;-69
2022/10/06 07:26:54;;;;;;;;;7.00;2.00;;;;;;;;4996449;28;45346;-70
2022/10/06 07:29:20;;;;;;;;;3.75;2.50;;;;;;;;4996732;28;45662;-70
2022/10/06 07:31:45;;;;;;;;;13.33;8.67;;;;;;;;4996770;28;45417;-70
2022/10/06 07:34:10;;;;;;;;;6.50;4.00;;;;;;;;4996538;28;46452;-70
2022/10/06 07:36:35;;;;;;;;;11.75;6.75;;;;;;;;4996664;28;45394;-70
2022/10/06 07:39:00;;;;;;;;;5.50;4.00;;;;;;;;4996594;28;45317;-70
2022/10/06 07:41:27;;;;;;;;;7.25;3.50;;;;;;;;4995637;28;45570;-70
2022/10/06 07:43:53;;;;;;;;;11.67;11.67;;;;;;;;4995918;28;46392;-70
2022/10/06 07:46:18;;;;;;;;;7.25;5.00;;;;;;;;4996589;28;46018;-70
2022/10/06 07:48:45;;;;;;;;;5.50;3.00;;;;;;;;4996589;28;45485;-70
2022/10/06 07:51:14;;;;;;;;;5.50;3.00;;;;;;;;4996756;28;45457;-71
2022/10/06 07:53:40;;;;;;;;;8.75;8.50;;;;;;;;4995833;28;46306;-71
2022/10/06 07:56:06;;;;;;;;;6.50;3.50;;;;;;;;4996404;28;45552;-71
2022/10/06 07:58:31;;;;;;;;;6.00;4.00;;;;;;;;4997627;28;45458;-71
2022/10/06 08:01:03;;;;;;;;;7.75;5.00;;;;;;;;5004795;28;45496;-70
2022/10/06 08:03:28;;;;;;;;;6.00;2.75;;;;;;;;5003658;28;46590;-70
2022/10/06 08:05:57;;;;;;;;;6.75;3.00;;;;;;;;5004499;28;45453;-70
2022/10/06 08:08:22;;;;;;;;;4.50;2.75;;;;;;;;5004344;28;45631;-70
2022/10/06 08:10:52;;;;;;;;;4.25;3.00;;;;;;;;5012780;28;45492;-70
2022/10/06 08:13:17;;;;;;;;;6.25;2.00;;;;;;;;4995515;28;46504;-71
2022/10/06 08:15:42;;;;;;;;;5.75;2.00;;;;;;;;4996270;28;45710;-71
2022/10/06 08:18:07;;;;;;;;;8.75;5.25;;;;;;;;4996916;28;45298;-70
2022/10/06 08:20:32;;;;;;;;;4.75;4.00;;;;;;;;4997935;28;45242;-72
2022/10/06 08:22:58;;;;;;;;;7.67;6.33;;;;;;;;4997375;28;46281;-72
2022/10/06 08:25:23;;;;;;;;;45.33;39.00;;;;;;;;4997137;28;45240;-71
2022/10/06 08:27:48;;;;;;;;;8.25;4.50;;;;;;;;4997277;28;45396;-71
2022/10/06 08:30:13;;;;;;;;;5.00;3.00;;;;;;;;4997972;28;45243;-70
2022/10/06 08:32:41;;;;;;;;;1.75;1.75;;;;;;;;4997568;28;45354;-71
2022/10/06 08:35:07;;;;;;;;;3.00;2.00;;;;;;;;4997325;28;45376;-70
2022/10/06 08:37:32;;;;;;;;;2.75;2.75;;;;;;;;4997393;28;45363;-70
2022/10/06 08:39:57;;;;;;;;;2.00;2.00;;;;;;;;4997782;28;45401;-70
2022/10/06 08:42:25;;;;;;;;;8.50;1.00;;;;;;;;4996743;28;45439;-71
2022/10/06 08:44:55;;;;;;;;;7.67;5.00;;;;;;;;4996717;28;45391;-71
2022/10/06 08:47:22;;;;;;;;;1.50;1.50;;;;;;;;4997258;28;45317;-71
2022/10/06 08:49:48;;;;;;;;;0.50;0.50;;;;;;;;4997288;28;45396;-71
2022/10/06 08:52:37;;;;;;;;;2.50;1.00;;;;;;;;4998634;28;45417;-71
2022/10/06 08:55:17;;;;;;;;;2.50;0.75;;;;;;;;5018154;28;45491;-72
2022/10/06 08:57:49;;;;;;;;;4.75;0.50;;;;;;;;5018215;28;45487;-70
2022/10/06 09:00:15;;;;;;;;;4.75;2.00;;;;;;;;5018490;28;45374;-70
2022/10/06 09:02:45;;;;;;;;;3.50;1.00;;;;;;;;5018121;28;46805;-70
2022/10/06 09:05:27;;;;;;;;;7.00;1.25;;;;;;;;5018103;28;45417;-71
2022/10/06 09:08:11;;;;;;;;;0.25;0.25;;;;;;;;5016680;28;45523;-70
2022/10/06 09:10:48;;;;;;;;;1.25;1.25;;;;;;;;5015230;28;46325;-70
2022/10/06 09:13:19;;;;;;;;;0.25;0.00;;;;;;;;5015527;28;47297;-70
2022/10/06 09:16:06;;;;;;;;;0.50;0.50;;;;;;;;5015982;28;45514;-70
2022/10/06 09:18:48;;;;;;;;;4.25;2.50;;;;;;;;5017907;28;45266;-70
2022/10/06 09:21:16;;;;;;;;;3.00;0.75;;;;;;;;5018113;28;45430;-71
2022/10/06 09:23:46;;;;;;;;;2.75;0.75;;;;;;;;5017889;28;45535;-70
2022/10/06 09:26:12;;;;;;;;;4.00;4.00;;;;;;;;5017427;28;45435;-71
2022/10/06 09:28:37;;;;;;;;;3.50;1.75;;;;;;;;5017553;28;45627;-70
2022/10/06 09:31:02;;;;;;;;;2.00;0.50;;;;;;;;5016638;28;45374;-70
2022/10/06 09:33:31;;;;;;;;;0.25;0.25;;;;;;;;4999682;28;45427;-70
2022/10/06 09:36:05;;;;;;;;;0.00;0.00;;;;;;;;4999984;28;45441;-71
2022/10/06 09:38:44;;;;;;;;;1.00;1.00;;;;;;;;4999984;28;45329;-71
2022/10/06 09:41:10;;;;;;;;;1.00;1.00;;;;;;;;5000035;28;45423;-71
2022/10/06 09:43:37;;;;;;;;;1.00;1.00;;;;;;;;4999768;28;45618;-70
2022/10/06 09:46:40;;;;;;;;;7.50;6.00;;;;;;;;4999750;28;45354;-70
2022/10/06 09:49:11;;;;;;;;;1.75;1.00;;;;;;;;5017338;28;45515;-71
2022/10/06 09:51:36;;;;;;;;;3.67;3.67;;;;;;;;5017373;28;45324;-71
2022/10/06 09:54:15;;;;;;;;;0.75;0.00;;;;;;;;5016997;28;46609;-71
2022/10/06 09:56:41;;;;;;;;;6.00;0.00;;;;;;;;5017337;28;45422;-71
2022/10/06 09:59:14;;;;;;;;;1.25;1.00;;;;;;;;5017217;28;45376;-71
2022/10/06 10:01:40;;;;;;;;;4.50;1.25;;;;;;;;5017217;28;45664;-67
2022/10/06 10:04:11;;;;;;;;;2.50;1.00;;;;;;;;5016416;28;46690;-69
2022/10/06 10:06:36;;;;;;;;;1.00;1.00;;;;;;;;5017042;28;45459;-69
2022/10/06 10:09:12;;;;;;;;;1.75;0.00;;;;;;;;5016912;28;45486;-69
2022/10/06 10:14:21;;;;;;;;;2.00;0.25;;;;;;;;5016789;28;45358;-70
2022/10/06 10:16:47;;;;;;;;;0.25;0.00;;;;;;;;5016835;28;45449;-70
2022/10/06 10:19:23;;;;;;;;;1.75;1.75;;;;;;;;5017309;28;45919;-70
2022/10/06 10:21:50;;;;;;;;;7.00;2.33;;;;;;;;5017133;28;45437;-71
2022/10/06 10:24:19;;;;;;;;;3.00;1.50;;;;;;;;4999058;28;45615;-70
2022/10/06 10:26:45;;;;;;;;;0.00;0.00;;;;;;;;4999085;28;45206;-70
2022/10/06 10:29:16;;;;;;;;;3.00;0.00;;;;;;;;4999172;28;45376;-70
2022/10/06 10:31:41;;;;;;;;;0.00;0.00;;;;;;;;4999308;28;45364;-71
2022/10/06 10:34:06;;;;;;;;;2.00;0.00;;;;;;;;4999243;28;45633;-71
2022/10/06 10:36:35;;;;;;;;;2.00;0.25;;;;;;;;4998876;28;45310;-71
2022/10/06 10:39:00;;;;;;;;;2.00;1.25;;;;;;;;4999195;28;45317;-71
2022/10/06 10:41:28;;;;;;;;;3.00;0.00;;;;;;;;4999466;28;45219;-71
2022/10/06 10:43:53;;;;;;;;;4.75;0.75;;;;;;;;4998361;28;45360;-70
2022/10/06 10:46:26;;;;;;;;;4.25;1.00;;;;;;;;4999081;28;45266;-70
2022/10/06 10:48:56;;;;;;;;;2.50;0.00;;;;;;;;4998921;28;45478;-70
2022/10/06 10:51:30;;;;;;;;;0.00;0.00;;;;;;;;4999031;28;45316;-71
2022/10/06 10:54:04;;;;;;;;;2.00;2.00;;;;;;;;4998417;28;45722;-71
2022/10/06 10:56:31;;;;;;;;;2.50;0.00;;;;;;;;4998809;28;45425;-71
2022/10/06 10:59:18;;;;;;;;;0.75;0.75;;;;;;;;4998891;28;45302;-72
2022/10/06 11:01:56;;;;;;;;;0.00;0.00;;;;;;;;4998958;28;45711;-72
2022/10/06 11:04:21;;;;;;;;;0.50;0.00;;;;;;;;4998564;28;47498;-71
2022/10/06 11:06:47;;;;;;;;;2.25;0.00;;;;;;;;4998711;28;45598;-71
2022/10/06 11:09:22;;;;;;;;;1.50;0.00;;;;;;;;4998612;28;45388;-71
2022/10/06 11:11:47;;;;;;;;;1.25;0.00;;;;;;;;4998768;28;45381;-72
2022/10/06 11:14:25;;;;;;;;;0.50;0.50;;;;;;;;4998290;28;45390;-70
2022/10/06 11:17:00;;;;;;;;;0.00;0.00;;;;;;;;4997802;28;45397;-71
2022/10/06 11:19:34;;;;;;;;;4.00;3.00;;;;;;;;4998573;28;45452;-72
2022/10/06 11:22:10;;;;;;;;;3.00;1.25;;;;;;;;4997391;28;45496;-71
2022/10/06 11:24:38;;;;;;;;;0.00;0.00;;;;;;;;4998388;28;45515;-70
2022/10/06 11:27:16;;;;;;;;;3.00;2.00;;;;;;;;4998342;28;45384;-71
2022/10/06 11:30:14;;;;;;;;;3.67;3.33;;;;;;;;4998347;28;45323;-71
2022/10/06 11:32:42;;;;;;;;;1.25;1.00;;;;;;;;5016159;28;45585;-71
2022/10/06 11:35:18;;;;;;;;;2.00;0.50;;;;;;;;5015818;28;45394;-71
2022/10/06 11:37:47;;;;;;;;;3.50;1.50;;;;;;;;5015640;28;45342;-70
2022/10/06 11:40:12;;;;;;;;;0.00;0.00;;;;;;;;5016141;28;45438;-71
2022/10/06 11:42:39;;;;;;;;;3.50;0.00;;;;;;;;5015949;28;45508;-71
2022/10/06 11:45:13;;;;;;;;;1.75;1.00;;;;;;;;5015556;28;45636;-71
2022/10/06 11:47:47;;;;;;;;;4.00;1.00;;;;;;;;5015829;28;45388;-70
2022/10/06 11:50:31;;;;;;;;;2.00;1.00;;;;;;;;5015600;28;45494;-70
2022/10/06 11:52:56;;;;;;;;;3.00;2.00;;;;;;;;5015679;28;45336;-71
2022/10/06 11:55:25;;;;;;;;;9.25;7.75;;;;;;;;5015474;28;46647;-70
2022/10/06 11:58:02;;;;;;;;;3.25;3.25;;;;;;;;5015514;28;45459;-70
2022/10/06 12:00:33;;;;;;;;;2.25;1.00;;;;;;;;5015494;28;45354;-70
2022/10/06 12:03:31;;;;;;;;;2.25;1.00;;;;;;;;5015725;28;45513;-70
2022/10/06 12:05:56;;;;;;;;;0.25;0.00;;;;;;;;4937033;28;45584;-71
2022/10/06 12:08:38;;;;;;;;;6.25;2.00;;;;;;;;4936924;28;45481;-71
2022/10/06 12:11:23;;;;;;;;;0.50;0.50;;;;;;;;4937167;28;45455;-70
2022/10/06 12:13:51;;;;;;;;;4.00;1.00;;;;;;;;4937180;28;45484;-70
2022/10/06 12:16:16;;;;;;;;;2.00;1.50;;;;;;;;4936845;28;46484;-71
2022/10/06 12:18:52;;;;;;;;;1.00;1.00;;;;;;;;4936915;28;45537;-71
2022/10/06 12:21:31;;;;;;;;;2.00;1.00;;;;;;;;4937304;28;45832;-70
2022/10/06 12:24:15;;;;;;;;;1.50;0.00;;;;;;;;4937149;28;45347;-71
2022/10/06 12:26:50;;;;;;;;;0.75;0.00;;;;;;;;4938672;28;45536;-71
2022/10/06 12:29:18;;;;;;;;;1.50;1.00;;;;;;;;4943024;28;45303;-71
2022/10/06 12:31:49;;;;;;;;;1.75;0.75;;;;;;;;4943512;28;45379;-71
2022/10/06 12:34:44;;;;;;;;;0.25;0.00;;;;;;;;4943461;28;45589;-71
2022/10/06 12:37:27;;;;;;;;;4.75;1.25;;;;;;;;4934380;28;46517;-71
2022/10/06 12:40:12;;;;;;;;;1.00;1.00;;;;;;;;4943220;28;45291;-71
2022/10/06 12:42:37;;;;;;;;;1.00;1.00;;;;;;;;5000517;28;45293;-72
2022/10/06 12:45:12;;;;;;;;;4.00;1.50;;;;;;;;5003883;28;45190;-71
2022/10/06 12:47:40;;;;;;;;;1.75;0.00;;;;;;;;5003807;28;45521;-71
2022/10/06 12:50:21;;;;;;;;;5.50;2.50;;;;;;;;5003602;28;45290;-71
2022/10/06 12:52:52;;;;;;;;;1.00;1.00;;;;;;;;5003881;28;45371;-71
2022/10/06 12:55:31;;;;;;;;;1.25;0.50;;;;;;;;5003774;28;45524;-72
2022/10/06 12:57:56;;;;;;;;;0.50;0.00;;;;;;;;5003539;28;46700;-70
2022/10/06 13:00:22;;;;;;;;;3.25;0.00;;;;;;;;5003424;28;45475;-70
2022/10/06 13:02:47;;;;;;;;;4.75;1.00;;;;;;;;5015174;28;45242;-70
2022/10/06 13:05:13;;;;;;;;;0.50;0.50;;;;;;;;5023774;28;45494;-72
2022/10/06 13:07:55;;;;;;;;;2.00;1.00;;;;;;;;5023314;28;45334;-71
2022/10/06 13:10:22;;;;;;;;;0.75;0.75;;;;;;;;5023245;28;45305;-72
2022/10/06 13:12:49;;;;;;;;;4.00;1.00;;;;;;;;5023595;28;45258;-71
2022/10/06 13:15:23;;;;;;;;;1.00;0.00;;;;;;;;5023386;28;45584;-73
2022/10/06 13:18:04;;;;;;;;;1.00;1.00;;;;;;;;5023154;28;47347;-71
2022/10/06 13:20:29;;;;;;;;;2.25;1.50;;;;;;;;5023156;28;45258;-72
2022/10/06 13:22:55;;;;;;;;;1.00;1.00;;;;;;;;5023580;28;45423;-72
2022/10/06 13:25:20;;;;;;;;;3.50;0.00;;;;;;;;5023287;28;45309;-72
2022/10/06 13:27:49;;;;;;;;;0.50;0.00;;;;;;;;5022846;28;46506;-71
2022/10/06 13:30:19;;;;;;;;;4.50;0.00;;;;;;;;5022951;28;45450;-72
2022/10/06 13:32:44;;;;;;;;;0.00;0.00;;;;;;;;5023272;28;45474;-72
2022/10/06 13:35:11;;;;;;;;;2.00;1.00;;;;;;;;5023443;28;45269;-72
2022/10/06 13:37:38;;;;;;;;;1.75;1.75;;;;;;;;5022135;28;45440;-73
2022/10/06 13:40:25;;;;;;;;;1.25;0.00;;;;;;;;5019136;28;45365;-73
2022/10/06 13:42:50;;;;;;;;;1.50;0.00;;;;;;;;5019172;28;45278;-72
2022/10/06 13:45:15;;;;;;;;;2.00;0.75;;;;;;;;5019966;28;45456;-73
2022/10/06 13:47:40;;;;;;;;;1.00;0.00;;;;;;;;5019525;28;46266;-71
2022/10/06 13:50:17;;;;;;;;;5.00;0.00;;;;;;;;5019358;28;45303;-73
2022/10/06 13:52:45;;;;;;;;;1.00;0.00;;;;;;;;5019689;28;45330;-73
2022/10/06 13:55:16;;;;;;;;;0.00;0.00;;;;;;;;5019748;28;45341;-73
2022/10/06 13:57:41;;;;;;;;;0.25;0.25;;;;;;;;5019415;28;46348;-71
2022/10/06 14:00:13;;;;;;;;;1.00;1.00;;;;;;;;5019325;28;45504;-72
2022/10/06 14:02:38;;;;;;;;;1.50;0.00;;;;;;;;5019416;28;45332;-72
2022/10/06 14:05:18;;;;;;;;;1.00;0.00;;;;;;;;5019871;28;45306;-73
2022/10/06 14:07:44;;;;;;;;;1.25;0.00;;;;;;;;5019255;28;46614;-72
2022/10/06 14:10:30;;;;;;;;;0.00;0.00;;;;;;;;5019031;28;45254;-72
2022/10/06 14:12:57;;;;;;;;;0.00;0.00;;;;;;;;5019219;28;45333;-73
2022/10/06 14:15:24;;;;;;;;;0.25;0.25;;;;;;;;5019407;28;45340;-73
2022/10/06 14:17:54;;;;;;;;;2.50;0.00;;;;;;;;5018932;28;47047;-73
2022/10/06 14:20:34;;;;;;;;;0.75;0.75;;;;;;;;5018772;28;45316;-72
2022/10/06 14:23:00;;;;;;;;;2.25;1.00;;;;;;;;5018941;28;45385;-73
2022/10/06 14:25:25;;;;;;;;;1.00;0.00;;;;;;;;5019203;28;45243;-73
2022/10/06 14:27:51;;;;;;;;;2.00;1.00;;;;;;;;5018663;28;45448;-73
2022/10/06 14:30:16;;;;;;;;;2.75;0.00;;;;;;;;5018781;28;45337;-73
2022/10/06 14:32:42;;;;;;;;;2.00;0.00;;;;;;;;5018861;28;45931;-72
2022/10/06 14:35:09;;;;;;;;;2.00;1.67;;;;;;;;5019219;28;45259;-72
2022/10/06 14:37:34;;;;;;;;;1.00;1.00;;;;;;;;5018504;28;46197;-72
2022/10/06 14:39:59;;;;;;;;;2.00;0.25;;;;;;;;5018703;28;45341;-72
2022/10/06 14:42:25;;;;;;;;;1.75;0.00;;;;;;;;5019200;28;45254;-72
2022/10/06 14:44:50;;;;;;;;;1.25;0.00;;;;;;;;5018844;28;45375;-71
2022/10/06 14:47:15;;;;;;;;;0.00;0.00;;;;;;;;5018717;28;45602;-73
2022/10/06 14:49:41;;;;;;;;;2.25;2.00;;;;;;;;5018256;28;45366;-72
2022/10/06 14:52:09;;;;;;;;;0.50;0.00;;;;;;;;5018818;28;45235;-73
2022/10/06 14:54:34;;;;;;;;;1.00;0.00;;;;;;;;5018966;28;45210;-72
2022/10/06 14:56:59;;;;;;;;;1.00;1.00;;;;;;;;5018280;28;46627;-71
2022/10/06 14:59:25;;;;;;;;;0.00;0.00;;;;;;;;5018285;28;45346;-72
2022/10/06 15:01:50;;;;;;;;;1.00;0.25;;;;;;;;5018605;28;45168;-72
2022/10/06 15:04:22;;;;;;;;;2.00;1.00;;;;;;;;5018826;28;45290;-73